createdAt,value
2019-04-27T00:00:09.309Z,100589.35
2019-04-27T00:02:46.695Z,100587.52
2019-04-27T00:05:35.421Z,100587.23
2019-04-27T00:08:24.031Z,100584.80
2019-04-27T00:11:14.543Z,100589.40
2019-04-27T00:13:46.381Z,100586.52
2019-04-27T00:16:33.816Z,100586.13
2019-04-27T00:19:20.981Z,100585.20
2019-04-27T00:22:05.574Z,100584.59
2019-04-27T00:24:36.182Z,100583.28
2019-04-27T00:27:06.155Z,100577.10
2019-04-27T00:29:35.342Z,100577.75
2019-04-27T00:32:07.060Z,100569.25
2019-04-27T00:34:36.297Z,100576.24
2019-04-27T00:37:30.618Z,100572.13
2019-04-27T00:40:04.359Z,100573.41
2019-04-27T00:42:35.652Z,100568.75
2019-04-27T00:45:08.505Z,100572.93
2019-04-27T00:47:37.815Z,100569.17
2019-04-27T00:50:07.335Z,100571.86
2019-04-27T00:52:39.728Z,100572.35
2019-04-27T00:55:09.786Z,100564.06
2019-04-27T00:57:46.775Z,100564.73
2019-04-27T01:00:39.748Z,100561.77
2019-04-27T01:03:14.003Z,100558.44
2019-04-27T01:05:45.607Z,100564.12
2019-04-27T01:08:14.924Z,100557.88
2019-04-27T01:10:44.158Z,100552.84
2019-04-27T01:13:13.970Z,100553.88
2019-04-27T01:15:43.176Z,100553.58
2019-04-27T01:18:15.419Z,100554.36
2019-04-27T01:20:43.602Z,100556.20
2019-04-27T01:23:12.929Z,100552.50
2019-04-27T01:25:59.777Z,100549.66
2019-04-27T01:28:35.760Z,100546.27
2019-04-27T01:31:09.294Z,100543.80
2019-04-27T01:33:40.628Z,100539.93
2019-04-27T01:36:10.748Z,100539.71
2019-04-27T01:38:47.265Z,100545.95
2019-04-27T01:41:25.286Z,100541.89
2019-04-27T01:43:56.241Z,100544.58
2019-04-27T01:46:25.514Z,100547.33
2019-04-27T01:48:54.701Z,100542.63
2019-04-27T01:51:25.223Z,100545.50
2019-04-27T01:53:54.436Z,100538.92
2019-04-27T01:56:23.673Z,100542.80
2019-04-27T01:58:53.215Z,100537.75
2019-04-27T02:01:40.309Z,100536.81
2019-04-27T02:04:29.427Z,100534.42
2019-04-27T02:06:59.801Z,100536.31
2019-04-27T02:09:29.107Z,100535.07
2019-04-27T02:12:03.970Z,100531.06
2019-04-27T02:14:33.300Z,100532.27
2019-04-27T02:17:02.608Z,100534.04
2019-04-27T02:19:31.968Z,100538.91
2019-04-27T02:22:01.201Z,100542.83
2019-04-27T02:24:30.677Z,100537.91
2019-04-27T02:26:59.937Z,100542.03
2019-04-27T02:29:46.706Z,100541.38
2019-04-27T02:32:36.485Z,100536.89
2019-04-27T02:35:14.866Z,100529.56
2019-04-27T02:37:44.460Z,100532.86
2019-04-27T02:41:03.440Z,100522.47
2019-04-27T02:43:51.927Z,100528.45
2019-04-27T02:46:21.221Z,100526.02
2019-04-27T02:49:00.152Z,100527.38
2019-04-27T02:51:36.777Z,100523.22
2019-04-27T02:54:12.031Z,100531.63
2019-04-27T02:56:40.651Z,100520.48
2019-04-27T02:59:12.072Z,100521.02
2019-04-27T03:01:53.307Z,100518.76
2019-04-27T03:04:22.062Z,100513.23
2019-04-27T03:06:51.654Z,100510.69
2019-04-27T03:09:20.900Z,100522.99
2019-04-27T03:11:50.970Z,100520.16
2019-04-27T03:14:40.423Z,100521.17
2019-04-27T03:17:22.667Z,100527.06
2019-04-27T03:20:11.459Z,100519.81
2019-04-27T03:22:46.435Z,100524.05
2019-04-27T03:25:35.843Z,100514.39
2019-04-27T03:28:11.016Z,100511.30
2019-04-27T03:30:43.139Z,100519.36
2019-04-27T03:33:14.235Z,100511.16
2019-04-27T03:35:44.200Z,100517.08
2019-04-27T03:38:15.078Z,100524.22
2019-04-27T03:40:44.727Z,100516.10
2019-04-27T03:43:23.613Z,100516.88
2019-04-27T03:45:53.506Z,100512.63
2019-04-27T03:48:22.941Z,100510.34
2019-04-27T03:50:59.798Z,100511.99
2019-04-27T03:53:57.418Z,100519.88
2019-04-27T03:56:30.404Z,100518.03
2019-04-27T03:59:09.823Z,100517.16
2019-04-27T04:01:39.589Z,100509.16
2019-04-27T04:04:10.375Z,100514.94
2019-04-27T04:06:41.188Z,100510.55
2019-04-27T04:09:10.819Z,100516.62
2019-04-27T04:11:55.396Z,100514.86
2019-04-27T04:14:24.851Z,100520.64
2019-04-27T04:17:01.716Z,100511.37
2019-04-27T04:19:31.493Z,100511.99
2019-04-27T04:22:03.595Z,100511.69
2019-04-27T04:24:35.733Z,100513.93
2019-04-27T04:27:06.523Z,100516.80
2019-04-27T04:29:39.262Z,100518.11
2019-04-27T04:32:07.400Z,100519.16
2019-04-27T04:34:36.509Z,100514.00
2019-04-27T04:37:05.879Z,100503.90
2019-04-27T04:39:36.352Z,100513.17
2019-04-27T04:42:25.847Z,100517.09
2019-04-27T04:45:26.793Z,100520.88
2019-04-27T04:47:59.715Z,100520.20
2019-04-27T04:50:30.445Z,100510.78
2019-04-27T04:53:00.172Z,100516.17
2019-04-27T04:55:30.619Z,100521.63
2019-04-27T04:57:59.854Z,100527.41
2019-04-27T05:00:29.982Z,100526.05
2019-04-27T05:02:59.605Z,100529.98
2019-04-27T05:05:29.421Z,100530.47
2019-04-27T05:08:00.657Z,100521.41
2019-04-27T05:10:31.282Z,100519.57
2019-04-27T05:13:00.423Z,100515.63
2019-04-27T05:15:30.389Z,100516.77
2019-04-27T05:17:59.435Z,100518.34
2019-04-27T05:20:39.544Z,100526.44
2019-04-27T05:23:09.666Z,100529.67
2019-04-27T05:25:39.181Z,100527.53
2019-04-27T05:28:09.760Z,100525.36
2019-04-27T05:30:39.194Z,100517.25
2019-04-27T05:33:08.920Z,100519.48
2019-04-27T05:35:40.604Z,100521.48
2019-04-27T05:38:13.075Z,100517.02
2019-04-27T05:40:40.118Z,100508.58
2019-04-27T05:43:10.246Z,100507.36
2019-04-27T05:46:29.756Z,100498.79
2019-04-27T05:49:06.050Z,100500.02
2019-04-27T05:51:36.854Z,100499.99
2019-04-27T05:54:03.168Z,100490.11
2019-04-27T05:56:32.259Z,100493.88
2019-04-27T05:59:01.896Z,100503.59
2019-04-27T06:01:30.965Z,100496.75
2019-04-27T06:04:00.163Z,100491.13
2019-04-27T06:06:29.700Z,100494.85
2019-04-27T06:08:59.473Z,100499.99
2019-04-27T06:11:28.773Z,100502.16
2019-04-27T06:13:59.337Z,100506.63
2019-04-27T06:16:29.501Z,100499.09
2019-04-27T06:18:59.492Z,100500.81
2019-04-27T06:21:29.486Z,100499.03
2019-04-27T06:23:58.937Z,100496.59
2019-04-27T06:26:30.095Z,100499.92
2019-04-27T06:28:59.614Z,100494.99
2019-04-27T06:31:29.690Z,100493.02
2019-04-27T06:33:59.748Z,100498.78
2019-04-27T06:36:29.189Z,100493.38
2019-04-27T06:38:58.929Z,100498.98
2019-04-27T06:41:29.475Z,100497.17
2019-04-27T06:43:59.347Z,100500.86
2019-04-27T06:46:28.945Z,100489.47
2019-04-27T06:48:59.327Z,100495.30
2019-04-27T06:51:28.932Z,100500.81
2019-04-27T06:53:59.506Z,100503.59
2019-04-27T06:56:28.832Z,100496.33
2019-04-27T06:58:59.741Z,100493.54
2019-04-27T07:01:29.994Z,100490.55
2019-04-27T07:03:59.806Z,100491.20
2019-04-27T07:06:30.158Z,100497.49
2019-04-27T07:08:59.807Z,100500.02
2019-04-27T07:11:29.575Z,100502.53
2019-04-27T07:13:59.466Z,100501.27
2019-04-27T07:16:29.411Z,100497.71
2019-04-27T07:18:59.486Z,100500.28
2019-04-27T07:21:29.850Z,100496.83
2019-04-27T07:23:59.587Z,100491.97
2019-04-27T07:26:30.261Z,100487.35
2019-04-27T07:29:00.017Z,100493.74
2019-04-27T07:31:31.633Z,100489.98
2019-04-27T07:33:59.893Z,100488.77
2019-04-27T07:36:46.727Z,100495.61
2019-04-27T07:39:19.393Z,100495.25
2019-04-27T07:41:49.058Z,100493.94
2019-04-27T07:44:40.126Z,100492.16
2019-04-27T07:47:17.140Z,100486.04
2019-04-27T07:49:46.262Z,100493.44
2019-04-27T07:52:15.296Z,100487.11
2019-04-27T07:54:44.683Z,100489.47
2019-04-27T07:57:13.850Z,100485.88
2019-04-27T07:59:42.948Z,100486.09
2019-04-27T08:02:12.030Z,100482.16
2019-04-27T08:04:41.288Z,100480.77
2019-04-27T08:07:10.631Z,100476.06
2019-04-27T08:09:39.888Z,100480.52
2019-04-27T08:12:10.710Z,100468.63
2019-04-27T08:14:40.129Z,100473.48
2019-04-27T08:17:09.754Z,100463.30
2019-04-27T08:19:39.551Z,100470.23
2019-04-27T08:22:09.598Z,100472.34
2019-04-27T08:24:39.550Z,100473.07
2019-04-27T08:27:26.353Z,100467.45
2019-04-27T08:30:12.805Z,100478.95
2019-04-27T08:32:44.003Z,100476.32
2019-04-27T08:35:13.758Z,100479.14
2019-04-27T08:37:42.828Z,100473.78
2019-04-27T08:40:12.116Z,100475.97
2019-04-27T08:42:41.599Z,100482.43
2019-04-27T08:45:11.008Z,100477.58
2019-04-27T08:47:41.770Z,100481.33
2019-04-27T08:50:11.440Z,100479.00
2019-04-27T08:52:41.829Z,100471.41
2019-04-27T08:55:11.025Z,100473.88
2019-04-27T08:57:40.387Z,100469.02
2019-04-27T09:00:10.001Z,100471.27
2019-04-27T09:02:46.341Z,100463.97
2019-04-27T09:05:10.335Z,100460.47
2019-04-27T09:07:49.661Z,100454.95
2019-04-27T09:10:28.869Z,100450.52
2019-04-27T09:13:08.896Z,100452.09
2019-04-27T09:15:43.000Z,100450.16
2019-04-27T09:18:14.020Z,100442.75
2019-04-27T09:20:49.825Z,100438.88
2019-04-27T09:23:19.007Z,100444.85
2019-04-27T09:25:49.610Z,100437.88
2019-04-27T09:28:20.268Z,100431.98
2019-04-27T09:30:49.946Z,100433.31
2019-04-27T09:33:22.091Z,100426.38
2019-04-27T09:35:50.117Z,100423.33
2019-04-27T09:38:19.233Z,100416.84
2019-04-27T09:40:51.280Z,100420.52
2019-04-27T09:43:20.575Z,100427.08
2019-04-27T09:45:49.682Z,100425.86
2019-04-27T09:48:18.759Z,100420.70
2019-04-27T09:50:49.096Z,100421.73
2019-04-27T09:53:18.188Z,100418.98
2019-04-27T09:55:47.246Z,100412.98
2019-04-27T09:58:18.503Z,100428.70
2019-04-27T10:03:10.213Z,100408.46
2019-04-27T10:05:39.702Z,100420.53
2019-04-27T10:08:08.781Z,100426.91
2019-04-27T10:10:37.919Z,100413.66
2019-04-27T10:13:07.284Z,100413.66
2019-04-27T10:15:36.306Z,100412.61
2019-04-27T10:18:08.464Z,100413.84
2019-04-27T10:20:40.559Z,100408.96
2019-04-27T10:23:08.689Z,100411.10
2019-04-27T10:25:38.626Z,100407.92
2019-04-27T10:28:10.227Z,100412.44
2019-04-27T10:30:39.471Z,100412.44
2019-04-27T10:33:08.525Z,100413.19
2019-04-27T10:35:37.870Z,100401.71
2019-04-27T10:38:06.944Z,100399.14
2019-04-27T10:40:36.059Z,100394.16
2019-04-27T10:43:06.264Z,100397.17
2019-04-27T10:45:35.795Z,100395.75
2019-04-27T10:48:09.253Z,100390.58
2019-04-27T10:50:38.393Z,100386.34
2019-04-27T10:53:07.435Z,100387.27
2019-04-27T10:55:36.837Z,100383.60
2019-04-27T10:58:06.118Z,100385.20
2019-04-27T11:00:40.473Z,100383.78
2019-04-27T11:03:09.890Z,100398.58
2019-04-27T11:05:53.975Z,100373.47
2019-04-27T11:08:23.335Z,100379.77
2019-04-27T11:10:52.400Z,100379.95
2019-04-27T11:13:21.463Z,100381.45
2019-04-27T11:15:50.822Z,100384.09
2019-04-27T11:18:19.877Z,100377.22
2019-04-27T11:20:48.992Z,100375.97
2019-04-27T11:23:18.376Z,100372.77
2019-04-27T11:25:47.453Z,100371.45
2019-04-27T11:28:17.377Z,100373.16
2019-04-27T11:30:46.762Z,100372.02
2019-04-27T11:33:16.256Z,100368.64
2019-04-27T11:35:54.596Z,100367.91
2019-04-27T11:38:23.967Z,100369.69
2019-04-27T11:40:53.046Z,100368.55
2019-04-27T11:43:22.146Z,100350.43
2019-04-27T11:45:51.482Z,100356.39
2019-04-27T11:48:20.552Z,100341.32
2019-04-27T11:50:49.645Z,100355.66
2019-04-27T11:53:22.804Z,100347.99
2019-04-27T11:55:49.787Z,100345.51
2019-04-27T11:58:18.960Z,100335.80
2019-04-27T12:00:52.095Z,100330.58
2019-04-27T12:03:21.230Z,100339.63
2019-04-27T12:05:51.151Z,100335.47
2019-04-27T12:08:20.501Z,100336.29
2019-04-27T12:10:50.265Z,100334.67
2019-04-27T12:13:19.361Z,100323.84
2019-04-27T12:15:48.753Z,100325.32
2019-04-27T12:18:17.814Z,100303.77
2019-04-27T12:20:46.906Z,100299.98
2019-04-27T12:23:16.628Z,100297.72
2019-04-27T12:25:46.249Z,100292.42
2019-04-27T12:28:37.418Z,100305.23
2019-04-27T12:31:32.328Z,100304.69
2019-04-27T12:34:02.744Z,100301.85
2019-04-27T12:36:32.034Z,100294.85
2019-04-27T12:39:01.113Z,100287.23
2019-04-27T12:41:30.201Z,100284.71
2019-04-27T12:43:59.540Z,100282.52
2019-04-27T12:46:28.645Z,100289.08
2019-04-27T12:48:57.815Z,100289.27
2019-04-27T12:51:31.619Z,100294.13
2019-04-27T12:54:23.818Z,100285.87
2019-04-27T12:57:32.469Z,100278.26
2019-04-27T13:00:20.625Z,100277.47
2019-04-27T13:02:49.678Z,100281.05
2019-04-27T13:05:18.730Z,100270.38
2019-04-27T13:07:48.132Z,100255.19
2019-04-27T13:10:17.282Z,100267.31
2019-04-27T13:12:46.453Z,100257.17
2019-04-27T13:15:15.819Z,100255.78
2019-04-27T13:17:44.902Z,100255.55
2019-04-27T13:20:16.470Z,100253.45
2019-04-27T13:22:46.037Z,100265.80
2019-04-27T13:25:15.262Z,100335.56
2019-04-27T13:27:44.370Z,100402.13
2019-04-27T13:30:14.110Z,100418.25
2019-04-27T13:32:45.599Z,100397.72
2019-04-27T13:35:17.276Z,100386.64
2019-04-27T13:37:47.615Z,100376.11
2019-04-27T13:40:17.534Z,100380.20
2019-04-27T13:43:07.586Z,100379.30
2019-04-27T13:45:51.247Z,100369.78
2019-04-27T13:48:27.961Z,100361.41
2019-04-27T13:50:59.146Z,100358.41
2019-04-27T13:53:28.216Z,100344.14
2019-04-27T13:56:02.517Z,100325.16
2019-04-27T13:58:31.838Z,100320.10
2019-04-27T14:01:00.911Z,100324.59
2019-04-27T14:03:30.231Z,100327.44
2019-04-27T14:06:01.069Z,100326.18
2019-04-27T14:08:30.369Z,100335.19
2019-04-27T14:11:01.195Z,100338.17
2019-04-27T14:13:30.700Z,100353.09
2019-04-27T14:15:59.751Z,100344.19
2019-04-27T14:18:29.210Z,100340.88
2019-04-27T14:20:59.619Z,100340.59
2019-04-27T14:23:30.698Z,100332.35
2019-04-27T14:26:00.453Z,100337.19
2019-04-27T14:28:29.790Z,100344.23
2019-04-27T14:30:59.132Z,100355.91
2019-04-27T14:33:28.627Z,100359.25
2019-04-27T14:35:59.519Z,100358.87
2019-04-27T14:38:28.639Z,100346.98
2019-04-27T14:40:59.355Z,100333.25
2019-04-27T14:43:28.799Z,100345.13
2019-04-27T14:45:58.320Z,100333.11
2019-04-27T14:48:29.313Z,100338.47
2019-04-27T14:50:59.191Z,100339.55
2019-04-27T14:53:28.395Z,100345.86
2019-04-27T14:55:58.563Z,100346.35
2019-04-27T14:58:28.459Z,100348.99
2019-04-27T15:00:58.516Z,100346.25
2019-04-27T15:03:27.722Z,100349.50
2019-04-27T15:05:59.150Z,100345.66
2019-04-27T15:08:28.235Z,100349.11
2019-04-27T15:10:57.345Z,100344.30
2019-04-27T15:13:26.723Z,100343.72
2019-04-27T15:15:55.905Z,100340.40
2019-04-27T15:18:29.640Z,100346.70
2019-04-27T15:21:02.646Z,100333.47
2019-04-27T15:23:30.897Z,100327.08
2019-04-27T15:26:01.054Z,100323.42
2019-04-27T15:28:33.279Z,100313.80
2019-04-27T15:31:26.236Z,100317.79
2019-04-27T15:34:29.650Z,100329.42
2019-04-27T15:37:38.879Z,100339.65
2019-04-27T15:40:26.762Z,100331.29
2019-04-27T15:43:02.266Z,100332.41
2019-04-27T15:45:31.588Z,100328.63
2019-04-27T15:48:00.825Z,100337.98
2019-04-27T15:50:32.245Z,100346.14
2019-04-27T15:53:02.934Z,100355.63
2019-04-27T15:55:36.653Z,100356.84
2019-04-27T15:58:03.347Z,100358.09
2019-04-27T16:00:32.425Z,100362.78
2019-04-27T16:03:01.509Z,100364.80
2019-04-27T16:05:32.621Z,100374.75
2019-04-27T16:08:05.940Z,100367.16
2019-04-27T16:10:36.504Z,100363.45
2019-04-27T16:13:06.941Z,100379.97
2019-04-27T16:15:34.227Z,100371.15
2019-04-27T16:18:05.170Z,100369.47
2019-04-27T16:20:34.357Z,100368.98
2019-04-27T16:23:04.385Z,100358.87
2019-04-27T16:25:46.862Z,100363.81
2019-04-27T16:28:09.788Z,100363.48
2019-04-27T16:30:39.193Z,100377.58
2019-04-27T16:33:08.739Z,100380.50
2019-04-27T16:35:38.741Z,100387.31
2019-04-27T16:38:21.576Z,100405.56
2019-04-27T16:40:50.754Z,100429.53
2019-04-27T16:43:23.806Z,100425.27
2019-04-27T16:45:51.969Z,100434.66
2019-04-27T16:48:21.813Z,100433.30
2019-04-27T16:50:55.216Z,100434.21
2019-04-27T16:53:22.555Z,100427.75
2019-04-27T16:56:01.864Z,100437.42
2019-04-27T16:58:31.975Z,100415.83
2019-04-27T17:01:06.723Z,100403.08
2019-04-27T17:03:35.825Z,100400.05
2019-04-27T17:06:07.935Z,100401.59
2019-04-27T17:08:39.194Z,100403.45
2019-04-27T17:11:12.931Z,100398.33
2019-04-27T17:13:44.225Z,100392.75
2019-04-27T17:16:33.789Z,100400.89
2019-04-27T17:19:09.147Z,100408.81
2019-04-27T17:21:41.219Z,100412.91
2019-04-27T17:24:09.875Z,100419.25
2019-04-27T17:26:42.369Z,100425.29
2019-04-27T17:29:16.632Z,100427.78
2019-04-27T17:31:50.476Z,100427.28
2019-04-27T17:34:25.163Z,100434.70
2019-04-27T17:36:54.945Z,100432.90
2019-04-27T17:39:23.504Z,100438.80
2019-04-27T17:41:53.920Z,100454.59
2019-04-27T17:44:23.373Z,100457.98
2019-04-27T17:46:52.402Z,100459.30
2019-04-27T17:49:22.027Z,100463.09
2019-04-27T17:51:51.265Z,100478.13
2019-04-27T17:54:20.735Z,100479.04
2019-04-27T17:56:52.419Z,100473.42
2019-04-27T17:59:21.096Z,100489.21
2019-04-27T18:01:53.859Z,100497.87
2019-04-27T18:04:21.937Z,100499.99
2019-04-27T18:06:51.053Z,100514.11
2019-04-27T18:09:21.968Z,100521.75
2019-04-27T18:11:54.094Z,100537.20
2019-04-27T18:14:22.200Z,100536.27
2019-04-27T18:16:51.316Z,100537.23
2019-04-27T18:19:25.872Z,100553.28
2019-04-27T18:22:03.973Z,100558.30
2019-04-27T18:24:50.969Z,100545.91
2019-04-27T18:27:39.040Z,100539.46
2019-04-27T18:30:19.241Z,100563.73
2019-04-27T18:32:49.012Z,100555.98
2019-04-27T18:35:19.949Z,100549.02
2019-04-27T18:37:49.265Z,100545.71
2019-04-27T18:40:19.212Z,100547.09
2019-04-27T18:42:48.611Z,100558.13
2019-04-27T18:45:18.407Z,100564.31
2019-04-27T18:47:51.372Z,100571.98
2019-04-27T18:50:30.573Z,100569.20
2019-04-27T18:53:09.726Z,100570.67
2019-04-27T18:55:39.063Z,100571.38
2019-04-27T18:58:09.075Z,100580.39
2019-04-27T19:00:38.243Z,100589.06
2019-04-27T19:03:09.412Z,100596.22
2019-04-27T19:05:40.682Z,100606.65
2019-04-27T19:08:11.099Z,100613.45
2019-04-27T19:10:40.394Z,100620.34
2019-04-27T19:13:09.454Z,100624.59
2019-04-27T19:15:38.847Z,100629.91
2019-04-27T19:18:08.434Z,100649.78
2019-04-27T19:20:39.076Z,100640.58
2019-04-27T19:23:08.806Z,100652.41
2019-04-27T19:26:06.215Z,100654.60
2019-04-27T19:28:42.751Z,100661.05
2019-04-27T19:31:18.795Z,100653.41
2019-04-27T19:33:48.275Z,100666.21
2019-04-27T19:36:19.199Z,100672.12
2019-04-27T19:38:49.777Z,100670.86
2019-04-27T19:41:20.013Z,100679.16
2019-04-27T19:43:49.097Z,100676.48
2019-04-27T19:46:19.955Z,100674.64
2019-04-27T19:48:49.938Z,100675.00
2019-04-27T19:51:19.225Z,100672.91
2019-04-27T19:53:48.310Z,100675.82
2019-04-27T19:56:19.325Z,100686.30
2019-04-27T19:58:52.796Z,100680.69
2019-04-27T20:01:28.056Z,100686.75
2019-04-27T20:04:05.038Z,100701.05
2019-04-27T20:06:34.154Z,100701.66
2019-04-27T20:09:08.590Z,100719.84
2019-04-27T20:11:37.876Z,100720.89
2019-04-27T20:14:06.951Z,100720.53
2019-04-27T20:16:36.001Z,100721.11
2019-04-27T20:19:05.356Z,100724.80
2019-04-27T20:21:34.442Z,100720.66
2019-04-27T20:24:05.577Z,100728.23
2019-04-27T20:26:34.900Z,100726.91
2019-04-27T20:29:04.062Z,100726.54
2019-04-27T20:31:33.128Z,100734.06
2019-04-27T20:34:04.100Z,100737.06
2019-04-27T20:36:33.251Z,100735.63
2019-04-27T20:39:02.329Z,100732.83
2019-04-27T20:41:31.969Z,100740.09
2019-04-27T20:44:04.145Z,100740.47
2019-04-27T20:46:32.882Z,100743.16
2019-04-27T20:49:13.679Z,100734.45
2019-04-27T20:51:53.240Z,100742.83
2019-04-27T20:54:22.935Z,100732.11
2019-04-27T20:56:53.632Z,100747.05
2019-04-27T20:59:22.725Z,100746.46
2019-04-27T21:01:52.194Z,100743.13
2019-04-27T21:04:24.350Z,100739.16
2019-04-27T21:06:56.735Z,100742.70
2019-04-27T21:09:26.096Z,100745.19
2019-04-27T21:11:55.174Z,100751.63
2019-04-27T21:14:24.299Z,100746.98
2019-04-27T21:16:53.628Z,100745.86
2019-04-27T21:19:22.698Z,100743.97
2019-04-27T21:21:51.792Z,100753.13
2019-04-27T21:24:22.753Z,100761.14
2019-04-27T21:26:51.647Z,100754.98
2019-04-27T21:29:21.066Z,100760.02
2019-04-27T21:31:51.867Z,100764.73
2019-04-27T21:34:20.805Z,100771.70
2019-04-27T21:36:51.089Z,100776.86
2019-04-27T21:39:21.690Z,100769.41
2019-04-27T21:41:51.681Z,100774.77
2019-04-27T21:44:21.767Z,100772.81
2019-04-27T21:46:52.047Z,100783.83
2019-04-27T21:49:22.746Z,100771.29
2019-04-27T21:52:03.626Z,100775.41
2019-04-27T21:54:33.348Z,100776.45
2019-04-27T21:57:03.798Z,100773.01
2019-04-27T21:59:32.872Z,100776.42
2019-04-27T22:02:03.630Z,100782.37
2019-04-27T22:04:32.961Z,100781.13
2019-04-27T22:07:02.381Z,100789.33
2019-04-27T22:09:31.435Z,100779.16
2019-04-27T22:12:02.548Z,100781.52
2019-04-27T22:14:31.707Z,100785.84
2019-04-27T22:17:00.947Z,100783.03
2019-04-27T22:19:31.179Z,100787.16
2019-04-27T22:22:04.696Z,100797.45
2019-04-27T22:24:38.790Z,100790.56
2019-04-27T22:27:08.194Z,100791.67
2019-04-27T22:29:37.267Z,100794.84
2019-04-27T22:32:06.331Z,100792.94
2019-04-27T22:34:35.718Z,100796.68
2019-04-27T22:37:05.160Z,100787.89
2019-04-27T22:39:40.670Z,100792.13
2019-04-27T22:42:34.961Z,100792.07
2019-04-27T22:45:14.137Z,100797.23
2019-04-27T22:47:44.369Z,100800.10
2019-04-27T22:50:13.508Z,100795.98
2019-04-27T22:52:42.606Z,100800.10
2019-04-27T22:55:12.012Z,100802.10
2019-04-27T22:57:52.469Z,100801.84
2019-04-27T23:00:41.195Z,100804.84
2019-04-27T23:03:13.582Z,100813.41
2019-04-27T23:05:43.122Z,100804.91
2019-04-27T23:08:12.138Z,100811.03
2019-04-27T23:10:41.285Z,100812.92
2019-04-27T23:13:11.249Z,100813.44
2019-04-27T23:15:43.899Z,100812.08
2019-04-27T23:18:12.988Z,100813.16
2019-04-27T23:20:42.582Z,100818.30
2019-04-27T23:23:11.619Z,100819.23
2019-04-27T23:25:42.679Z,100826.33
2019-04-27T23:28:11.952Z,100827.88
2019-04-27T23:31:02.289Z,100821.23
2019-04-27T23:33:31.146Z,100818.13
2019-04-27T23:36:01.541Z,100820.41
2019-04-27T23:38:31.065Z,100827.65
2019-04-27T23:41:01.830Z,100819.64
2019-04-27T23:43:31.008Z,100816.75
2019-04-27T23:46:01.617Z,100821.03
2019-04-27T23:48:32.130Z,100817.75
2019-04-27T23:51:12.658Z,100828.58
2019-04-27T23:53:41.859Z,100827.55
2019-04-27T23:56:10.878Z,100822.23
2019-04-27T23:58:40.265Z,100825.12
